Time,TemperatureF,DewpointF,PressureIn,WindDirection,WindDirectionDegrees,WindSpeedMPH,WindSpeedGustMPH,Humidity,HourlyPrecipIn,Conditions,Clouds,dailyrainin,SoftwareType,DateUTC
2013-01-01 00:00:00,52.5,43.8,30.32,WSW,248,3.5,3.5,72,0.00,OVC,,0.00,WeatherDisplay:10.37,2013-01-01 05:00:00,
2013-01-01 00:05:00,52.5,43.8,30.32,SW,225,2.3,2.4,72,0.00,OVC,,0.00,WeatherDisplay:10.37,2013-01-01 05:05:00,
2013-01-01 00:10:00,52.5,43.8,30.32,West,270,2.3,2.3,72,0.00,OVC,,0.00,WeatherDisplay:10.37,2013-01-01 05:10:00,
2013-01-01 00:15:00,52.5,43.8,30.31,SW,225,2.3,2.3,72,0.00,OVC,,0.00,WeatherDisplay:10.37,2013-01-01 05:15:00,
2013-01-01 00:20:00,52.5,43.8,30.32,WSW,248,2.3,2.3,72,0.00,OVC,,0.00,WeatherDisplay:10.37,2013-01-01 05:20:00,
2013-01-01 00:25:00,52.7,43.9,30.32,WSW,248,2.3,2.3,72,0.00,OVC,,0.00,WeatherDisplay:10.37,2013-01-01 05:25:00,
2013-01-01 00:30:00,52.5,43.8,30.31,SW,225,2.3,2.3,72,0.00,OVC,,0.00,WeatherDisplay:10.37,2013-01-01 05:30:00,
2013-01-01 00:35:00,52.5,43.8,30.32,West,270,1.8,1.8,72,0.00,OVC,,0.00,WeatherDisplay:10.37,2013-01-01 05:35:00,
2013-01-01 00:40:00,52.5,43.8,30.31,WSW,248,2.3,2.3,72,0.00,OVC,,0.00,WeatherDisplay:10.37,2013-01-01 05:40:00,
2013-01-01 00:45:00,52.5,43.8,30.31,SE,135,3.5,3.5,72,0.00,OVC,,0.00,WeatherDisplay:10.37,2013-01-01 05:45:00,
2013-01-01 00:50:00,52.5,43.8,30.31,SW,225,1.1,1.1,72,0.00,OVC,,0.00,WeatherDisplay:10.37,2013-01-01 05:50:00,
2013-01-01 00:55:00,52.5,43.8,30.30,SW,225,1.1,1.1,72,0.00,OVC,,0.00,WeatherDisplay:10.37,2013-01-01 05:55:00,
2013-01-01 01:00:00,52.5,43.8,30.30,SW,225,3.5,3.5,72,0.00,OVC,,0.00,WeatherDisplay:10.37,2013-01-01 06:00:00,
2013-01-01 01:05:00,52.5,43.8,30.30,SW,225,2.3,2.3,72,0.00,OVC,,0.00,WeatherDisplay:10.37,2013-01-01 06:05:00,
2013-01-01 01:10:00,52.5,43.8,30.29,SW,225,3.1,3.1,72,0.00,OVC,,0.00,WeatherDisplay:10.37,2013-01-01 06:10:00,
2013-01-01 01:15:00,52.5,43.8,30.29,SW,225,2.0,2.0,72,0.00,OVC,,0.00,WeatherDisplay:10.37,2013-01-01 06:15:00,
2013-01-01 01:20:00,52.3,43.6,30.29,WSW,248,2.3,2.3,72,0.00,OVC,,0.00,WeatherDisplay:10.37,2013-01-01 06:20:00,
2013-01-01 01:25:00,52.3,43.6,30.29,South,180,2.3,2.3,72,0.00,OVC,,0.00,WeatherDisplay:10.37,2013-01-01 06:25:00,
2013-01-01 01:30:00,52.3,43.6,30.29,WSW,248,2.3,2.3,72,0.00,OVC,,0.00,WeatherDisplay:10.37,2013-01-01 06:30:00,
2013-01-01 01:35:00,52.3,43.9,30.29,WSW,248,1.4,1.4,73,0.00,OVC,,0.00,WeatherDisplay:10.37,2013-01-01 06:35:00,
2013-01-01 01:40:00,52.3,43.9,30.28,WSW,248,2.4,2.4,73,0.00,OVC,,0.00,WeatherDisplay:10.37,2013-01-01 06:40:00,
2013-01-01 01:45:00,52.3,43.9,30.29,WSW,248,1.1,1.1,73,0.00,OVC,,0.00,WeatherDisplay:10.37,2013-01-01 06:45:00,
2013-01-01 01:50:00,52.3,43.9,30.29,SW,225,1.4,1.4,73,0.00,OVC,,0.00,WeatherDisplay:10.37,2013-01-01 06:50:00,
2013-01-01 01:55:00,52.3,43.9,30.28,SSW,202,2.3,2.3,73,0.00,OVC,,0.00,WeatherDisplay:10.37,2013-01-01 06:55:00,
2013-01-01 02:00:00,52.3,43.9,30.29,WSW,248,3.3,3.3,73,0.00,OVC,,0.00,WeatherDisplay:10.37,2013-01-01 07:00:00,
2013-01-01 02:05:00,52.3,43.9,30.29,SW,225,3.3,3.3,73,0.00,OVC,,0.00,WeatherDisplay:10.37,2013-01-01 07:05:00,
2013-01-01 02:10:00,52.3,43.9,30.29,SW,225,2.3,2.3,73,0.00,OVC,,0.00,WeatherDisplay:10.37,2013-01-01 07:10:00,
2013-01-01 02:15:00,52.3,43.9,30.28,SW,225,2.3,2.4,73,0.00,OVC,,0.00,WeatherDisplay:10.37,2013-01-01 07:15:00,
2013-01-01 02:20:00,52.3,43.9,30.28,SW,225,3.5,3.5,73,0.00,OVC,,0.00,WeatherDisplay:10.37,2013-01-01 07:20:00,
2013-01-01 02:25:00,52.3,43.9,30.27,SW,225,4.6,4.6,73,0.00,OVC,,0.00,WeatherDisplay:10.37,2013-01-01 07:25:00,
2013-01-01 02:30:00,52.3,44.3,30.27,SW,225,4.0,4.0,74,0.00,OVC,,0.00,WeatherDisplay:10.37,2013-01-01 07:30:00,
2013-01-01 02:35:00,52.3,44.3,30.27,SSW,202,2.3,2.3,74,0.00,OVC,,0.00,WeatherDisplay:10.37,2013-01-01 07:35:00,
2013-01-01 02:41:00,52.3,44.3,30.26,West,270,2.3,2.3,74,0.00,OVC,,0.00,WeatherDisplay:10.37,2013-01-01 07:41:00,
2013-01-01 02:46:00,52.5,44.5,30.26,West,270,2.3,2.3,74,0.00,OVC,,0.00,WeatherDisplay:10.37,2013-01-01 07:46:00,
2013-01-01 02:51:00,52.5,44.5,30.26,SW,225,5.8,5.8,74,0.00,OVC,,0.00,WeatherDisplay:10.37,2013-01-01 07:51:00,
2013-01-01 02:56:00,52.5,44.5,30.26,ESE,112,4.5,4.5,74,0.00,OVC,,0.00,WeatherDisplay:10.37,2013-01-01 07:56:00,
2013-01-01 03:01:00,52.5,44.5,30.26,SSE,158,3.5,3.5,74,0.00,OVC,,0.00,WeatherDisplay:10.37,2013-01-01 08:01:00,
2013-01-01 03:06:00,52.7,44.6,30.26,WSW,248,4.0,4.0,74,0.00,OVC,,0.00,WeatherDisplay:10.37,2013-01-01 08:06:00,
2013-01-01 03:11:00,52.5,44.5,30.27,West,270,4.6,4.6,74,0.00,OVC,,0.00,WeatherDisplay:10.37,2013-01-01 08:11:00,
2013-01-01 03:16:00,52.7,44.6,30.27,WSW,248,3.5,3.5,74,0.00,OVC,,0.00,WeatherDisplay:10.37,2013-01-01 08:16:00,
2013-01-01 03:21:00,52.7,44.6,30.27,WSW,248,4.6,4.6,74,0.00,OVC,,0.00,WeatherDisplay:10.37,2013-01-01 08:21:00,
2013-01-01 03:26:00,52.7,44.6,30.26,SW,225,3.8,3.8,74,0.00,OVC,,0.00,WeatherDisplay:10.37,2013-01-01 08:26:00,
2013-01-01 03:31:00,52.9,44.8,30.26,SSW,202,3.5,3.5,74,0.00,OVC,,0.00,WeatherDisplay:10.37,2013-01-01 08:31:00,
2013-01-01 03:36:00,52.9,44.8,30.26,WSW,248,2.6,2.6,74,0.00,OVC,,0.00,WeatherDisplay:10.37,2013-01-01 08:36:00,
2013-01-01 03:41:00,52.9,44.8,30.25,SSW,202,2.4,2.4,74,0.00,OVC,,0.00,WeatherDisplay:10.37,2013-01-01 08:41:00,
2013-01-01 03:46:00,52.9,44.8,30.25,SW,225,2.3,2.3,74,0.00,OVC,,0.00,WeatherDisplay:10.37,2013-01-01 08:46:00,
2013-01-01 03:51:00,52.9,44.8,30.25,West,270,2.3,2.3,74,0.00,OVC,,0.00,WeatherDisplay:10.37,2013-01-01 08:51:00,
2013-01-01 03:56:00,52.9,44.8,30.26,SW,225,3.5,3.5,74,0.00,OVC,,0.00,WeatherDisplay:10.37,2013-01-01 08:56:00,
2013-01-01 04:01:00,52.9,44.8,30.26,WSW,248,3.5,3.5,74,0.00,OVC,,0.00,WeatherDisplay:10.37,2013-01-01 09:01:00,
2013-01-01 04:06:00,52.9,44.5,30.26,WSW,248,5.8,5.8,73,0.00,OVC,,0.00,WeatherDisplay:10.37,2013-01-01 09:06:00,
2013-01-01 04:11:00,53.1,45.0,30.26,West,270,3.5,3.5,74,0.00,OVC,,0.00,WeatherDisplay:10.37,2013-01-01 09:11:00,
2013-01-01 04:16:00,53.1,44.6,30.26,SSE,158,4.7,4.7,73,0.00,OVC,,0.00,WeatherDisplay:10.37,2013-01-01 09:16:00,
2013-01-01 04:21:00,53.1,44.6,30.25,SSW,202,4.6,4.6,73,0.00,OVC,,0.00,WeatherDisplay:10.37,2013-01-01 09:21:00,
2013-01-01 04:26:00,53.1,44.6,30.25,WSW,248,3.5,3.5,73,0.00,OVC,,0.00,WeatherDisplay:10.37,2013-01-01 09:26:00,
2013-01-01 04:31:00,53.2,44.8,30.25,SSW,202,3.8,3.8,73,0.00,OVC,,0.00,WeatherDisplay:10.37,2013-01-01 09:31:00,
2013-01-01 04:36:00,53.2,44.8,30.26,SW,225,3.5,3.5,73,0.00,OVC,,0.00,WeatherDisplay:10.37,2013-01-01 09:36:00,
2013-01-01 04:41:00,53.2,44.8,30.26,West,270,2.3,2.3,73,0.00,OVC,,0.00,WeatherDisplay:10.37,2013-01-01 09:41:00,
2013-01-01 04:46:00,53.2,44.8,30.26,West,270,2.6,2.6,73,0.00,OVC,,0.00,WeatherDisplay:10.37,2013-01-01 09:46:00,
2013-01-01 04:51:00,53.2,45.2,30.25,SW,225,1.1,1.1,74,0.00,OVC,,0.00,WeatherDisplay:10.37,2013-01-01 09:51:00,
2013-01-01 04:56:00,53.2,45.2,30.24,SW,225,3.5,3.5,74,0.00,OVC,,0.00,WeatherDisplay:10.37,2013-01-01 09:56:00,
2013-01-01 05:01:00,53.2,45.2,30.23,SSE,158,2.3,2.3,74,0.00,OVC,,0.00,WeatherDisplay:10.37,2013-01-01 10:01:00,
2013-01-01 05:06:00,53.4,45.3,30.23,WNW,292,2.3,2.3,74,0.00,OVC,,0.00,WeatherDisplay:10.37,2013-01-01 10:06:00,
2013-01-01 05:11:00,53.4,45.3,30.24,WSW,248,2.3,2.3,74,0.00,OVC,,0.00,WeatherDisplay:10.37,2013-01-01 10:11:00,
2013-01-01 05:16:00,53.4,45.3,30.24,SW,225,2.3,2.3,74,0.00,OVC,,0.00,WeatherDisplay:10.37,2013-01-01 10:16:00,
2013-01-01 05:21:00,53.4,45.3,30.24,SW,225,2.3,2.3,74,0.00,OVC,,0.00,WeatherDisplay:10.37,2013-01-01 10:21:00,
2013-01-01 05:26:00,53.6,45.5,30.25,WNW,292,3.6,3.6,74,0.00,OVC,,0.00,WeatherDisplay:10.37,2013-01-01 10:26:00,
2013-01-01 05:31:00,53.6,45.5,30.25,SSW,202,3.5,3.5,74,0.00,OVC,,0.00,WeatherDisplay:10.37,2013-01-01 10:31:00,
2013-01-01 05:36:00,53.6,45.5,30.25,SW,225,3.5,3.5,74,0.00,OVC,,0.00,WeatherDisplay:10.37,2013-01-01 10:36:00,
2013-01-01 05:41:00,53.6,45.5,30.25,SSW,202,3.5,3.5,74,0.00,OVC,,0.00,WeatherDisplay:10.37,2013-01-01 10:41:00,
2013-01-01 05:46:00,53.6,45.5,30.25,SSW,202,2.9,2.9,74,0.00,OVC,,0.00,WeatherDisplay:10.37,2013-01-01 10:46:00,
2013-01-01 05:51:00,53.6,45.5,30.26,SW,225,2.3,2.4,74,0.00,OVC,,0.00,WeatherDisplay:10.37,2013-01-01 10:51:00,
2013-01-01 05:56:00,53.6,45.5,30.26,West,270,3.5,3.5,74,0.00,OVC,,0.00,WeatherDisplay:10.37,2013-01-01 10:56:00,
2013-01-01 06:01:00,53.8,45.7,30.26,SW,225,3.5,3.5,74,0.00,OVC,,0.00,WeatherDisplay:10.37,2013-01-01 11:01:00,
2013-01-01 06:06:00,53.8,45.7,30.25,SSW,202,4.6,4.6,74,0.00,OVC,,0.00,WeatherDisplay:10.37,2013-01-01 11:06:00,
2013-01-01 06:11:00,53.8,45.7,30.25,SW,225,2.3,2.3,74,0.00,OVC,,0.00,WeatherDisplay:10.37,2013-01-01 11:11:00,
2013-01-01 06:16:00,54.0,45.9,30.24,SSW,202,4.6,4.6,74,0.00,OVC,,0.00,WeatherDisplay:10.37,2013-01-01 11:16:00,
2013-01-01 06:21:00,54.0,45.9,30.25,SW,225,3.5,3.5,74,0.00,OVC,,0.00,WeatherDisplay:10.37,2013-01-01 11:21:00,
2013-01-01 06:26:00,54.0,45.9,30.25,WSW,248,6.2,6.2,74,0.00,OVC,,0.00,WeatherDisplay:10.37,2013-01-01 11:26:00,
2013-01-01 06:31:00,54.0,45.9,30.25,WSW,248,2.3,2.3,74,0.00,OVC,,0.00,WeatherDisplay:10.37,2013-01-01 11:31:00,
2013-01-01 06:36:00,54.0,45.9,30.25,WNW,292,2.3,2.3,74,0.00,OVC,,0.00,WeatherDisplay:10.37,2013-01-01 11:36:00,
2013-01-01 06:41:00,54.1,46.0,30.25,WSW,248,5.8,5.8,74,0.00,OVC,,0.00,WeatherDisplay:10.37,2013-01-01 11:41:00,
2013-01-01 06:46:00,54.1,45.7,30.26,NNW,338,3.5,3.5,73,0.00,OVC,,0.00,WeatherDisplay:10.37,2013-01-01 11:46:00,
2013-01-01 06:51:00,54.1,45.7,30.26,WNW,292,5.8,5.8,73,0.00,OVC,,0.00,WeatherDisplay:10.37,2013-01-01 11:51:00,
2013-01-01 06:56:00,54.3,45.8,30.26,SSW,202,4.6,4.6,73,0.00,OVC,,0.00,WeatherDisplay:10.37,2013-01-01 11:56:00,
2013-01-01 07:01:00,54.1,45.7,30.26,West,270,5.8,5.8,73,0.00,OVC,,0.00,WeatherDisplay:10.37,2013-01-01 12:01:00,
2013-01-01 07:06:00,54.3,45.8,30.26,WSW,248,2.3,2.3,73,0.00,OVC,,0.00,WeatherDisplay:10.37,2013-01-01 12:06:00,
2013-01-01 07:11:00,54.3,45.8,30.26,SW,225,3.5,3.5,73,0.00,OVC,,0.00,WeatherDisplay:10.37,2013-01-01 12:11:00,
2013-01-01 07:16:00,54.1,45.7,30.27,WSW,248,3.5,3.5,73,0.00,OVC,,0.00,WeatherDisplay:10.37,2013-01-01 12:16:00,
2013-01-01 07:21:00,54.1,45.7,30.26,West,270,2.3,2.3,73,0.00,OVC,,0.00,WeatherDisplay:10.37,2013-01-01 12:21:00,
2013-01-01 07:26:00,54.3,45.8,30.27,WSW,248,4.6,4.6,73,0.00,OVC,,0.00,WeatherDisplay:10.37,2013-01-01 12:26:00,
2013-01-01 07:31:00,54.3,45.8,30.27,SW,225,2.4,2.4,73,0.00,OVC,,0.00,WeatherDisplay:10.37,2013-01-01 12:31:00,
2013-01-01 07:36:00,54.3,45.8,30.28,SW,225,3.5,3.5,73,0.00,OVC,,0.00,WeatherDisplay:10.37,2013-01-01 12:36:00,
2013-01-01 07:41:00,54.3,45.8,30.28,SW,225,3.5,3.5,73,0.00,OVC,,0.00,WeatherDisplay:10.37,2013-01-01 12:41:00,
2013-01-01 07:46:00,54.1,45.7,30.28,WNW,292,5.8,5.8,73,0.00,OVC,,0.00,WeatherDisplay:10.37,2013-01-01 12:46:00,
2013-01-01 07:51:00,54.3,45.8,30.28,WSW,248,3.5,3.5,73,0.00,OVC,,0.00,WeatherDisplay:10.37,2013-01-01 12:51:00,
2013-01-01 07:56:00,54.3,45.8,30.28,WSW,248,3.5,3.5,73,0.00,OVC,,0.00,WeatherDisplay:10.37,2013-01-01 12:56:00,
2013-01-01 08:01:00,54.3,45.8,30.29,SW,225,3.5,3.5,73,0.00,OVC,,0.00,WeatherDisplay:10.37,2013-01-01 13:01:00,
2013-01-01 08:06:00,54.3,45.8,30.29,West,270,4.6,4.6,73,0.00,OVC,,0.00,WeatherDisplay:10.37,2013-01-01 13:06:00,
2013-01-01 08:11:00,54.3,45.8,30.28,WSW,248,3.5,3.5,73,0.00,OVC,,0.00,WeatherDisplay:10.37,2013-01-01 13:11:00,
2013-01-01 08:16:00,54.5,46.0,30.29,West,270,2.3,3.1,73,0.00,OVC,,0.00,WeatherDisplay:10.37,2013-01-01 13:16:00,
2013-01-01 08:21:00,54.7,46.2,30.29,WSW,248,1.8,1.8,73,0.00,OVC,,0.00,WeatherDisplay:10.37,2013-01-01 13:21:00,
2013-01-01 08:26:00,54.7,46.2,30.29,WSW,248,3.5,3.5,73,0.00,OVC,,0.00,WeatherDisplay:10.37,2013-01-01 13:26:00,
2013-01-01 08:31:00,54.9,46.4,30.29,SSW,202,2.3,2.3,73,0.00,OVC,,0.00,WeatherDisplay:10.37,2013-01-01 13:31:00,
2013-01-01 08:36:00,55.0,46.5,30.29,WSW,248,2.3,2.3,73,0.00,OVC,,0.00,WeatherDisplay:10.37,2013-01-01 13:36:00,
2013-01-01 08:41:00,55.0,46.5,30.29,SW,225,2.3,2.3,73,0.00,OVC,,0.00,WeatherDisplay:10.37,2013-01-01 13:41:00,
2013-01-01 08:46:00,55.2,46.7,30.29,West,270,3.5,3.5,73,0.00,OVC,,0.00,WeatherDisplay:10.37,2013-01-01 13:46:00,
2013-01-01 08:51:00,55.4,46.9,30.29,SW,225,2.3,2.3,73,0.00,OVC,,0.00,WeatherDisplay:10.37,2013-01-01 13:51:00,
2013-01-01 08:56:00,55.6,47.1,30.29,WSW,248,3.5,3.5,73,0.00,OVC,,0.00,WeatherDisplay:10.37,2013-01-01 13:56:00,
2013-01-01 09:01:00,55.8,47.2,30.29,West,270,2.0,2.0,73,0.00,OVC,,0.00,WeatherDisplay:10.37,2013-01-01 14:01:00,
2013-01-01 09:06:00,55.9,47.4,30.30,WSW,248,2.3,2.3,73,0.00,OVC,,0.00,WeatherDisplay:10.37,2013-01-01 14:06:00,
2013-01-01 09:11:00,56.1,47.6,30.29,NNW,338,2.3,2.3,73,0.00,OVC,,0.00,WeatherDisplay:10.37,2013-01-01 14:11:00,
2013-01-01 09:16:00,56.3,47.8,30.29,WSW,248,2.4,2.4,73,0.00,OVC,,0.00,WeatherDisplay:10.37,2013-01-01 14:16:00,
2013-01-01 09:21:00,56.3,47.8,30.29,SW,225,2.3,2.3,73,0.00,OVC,,0.00,WeatherDisplay:10.37,2013-01-01 14:21:00,
2013-01-01 09:26:00,56.3,47.4,30.29,WSW,248,2.3,2.3,72,0.00,OVC,,0.00,WeatherDisplay:10.37,2013-01-01 14:26:00,
2013-01-01 09:31:00,56.5,47.6,30.29,West,270,2.9,2.9,72,0.00,OVC,,0.00,WeatherDisplay:10.37,2013-01-01 14:31:00,
2013-01-01 09:36:00,56.5,47.6,30.29,WSW,248,2.3,2.3,72,0.00,OVC,,0.00,WeatherDisplay:10.37,2013-01-01 14:36:00,
2013-01-01 09:41:00,56.5,47.6,30.29,SW,225,3.5,3.5,72,0.00,OVC,,0.00,WeatherDisplay:10.37,2013-01-01 14:41:00,
2013-01-01 09:46:00,56.7,47.7,30.30,NW,315,4.0,4.0,72,0.00,OVC,,0.00,WeatherDisplay:10.37,2013-01-01 14:46:00,
2013-01-01 09:51:00,56.8,47.9,30.30,West,270,3.1,3.1,72,0.00,OVC,,0.00,WeatherDisplay:10.37,2013-01-01 14:51:00,
2013-01-01 09:56:00,56.8,47.9,30.30,WSW,248,3.5,3.5,72,0.00,OVC,,0.00,WeatherDisplay:10.37,2013-01-01 14:56:00,
2013-01-01 10:01:00,56.8,47.9,30.30,SW,225,2.9,2.9,72,0.00,OVC,,0.00,WeatherDisplay:10.37,2013-01-01 15:01:00,
2013-01-01 10:06:00,56.8,47.9,30.30,West,270,4.6,4.6,72,0.00,OVC,,0.00,WeatherDisplay:10.37,2013-01-01 15:06:00,
2013-01-01 10:11:00,57.0,48.1,30.30,SSW,202,4.6,4.6,72,0.00,BKN,,0.00,WeatherDisplay:10.37,2013-01-01 15:11:00,
2013-01-01 10:16:00,56.8,47.9,30.30,WSW,248,3.5,3.5,72,0.00,BKN,,0.00,WeatherDisplay:10.37,2013-01-01 15:16:00,
2013-01-01 10:21:00,57.0,48.1,30.30,WSW,248,4.6,4.6,72,0.00,BKN,,0.00,WeatherDisplay:10.37,2013-01-01 15:21:00,
2013-01-01 10:26:00,57.2,48.3,30.30,SW,225,4.6,4.9,72,0.00,BKN,,0.00,WeatherDisplay:10.37,2013-01-01 15:26:00,
2013-01-01 10:31:00,57.2,48.3,30.29,SW,225,3.5,3.5,72,0.00,BKN,,0.00,WeatherDisplay:10.37,2013-01-01 15:31:00,
2013-01-01 10:36:00,57.4,48.1,30.29,West,270,3.1,3.1,71,0.00,BKN,,0.00,WeatherDisplay:10.37,2013-01-01 15:36:00,
2013-01-01 10:41:00,57.6,48.2,30.29,WSW,248,3.3,3.3,71,0.00,BKN,,0.00,WeatherDisplay:10.37,2013-01-01 15:41:00,
2013-01-01 10:47:00,57.6,48.2,30.29,West,270,4.0,4.0,71,0.00,BKN,,0.00,WeatherDisplay:10.37,2013-01-01 15:47:00,
2013-01-01 10:52:00,57.6,48.2,30.29,WSW,248,4.6,4.6,71,0.00,BKN,,0.00,WeatherDisplay:10.37,2013-01-01 15:52:00,
2013-01-01 10:57:00,57.6,48.2,30.29,SW,225,4.3,4.3,71,0.00,BKN,,0.00,WeatherDisplay:10.37,2013-01-01 15:57:00,
2013-01-01 11:02:00,57.7,48.4,30.29,WSW,248,5.2,5.2,71,0.00,BKN,,0.00,WeatherDisplay:10.37,2013-01-01 16:02:00,
2013-01-01 11:07:00,57.7,48.4,30.28,South,180,3.5,3.5,71,0.00,BKN,,0.00,WeatherDisplay:10.37,2013-01-01 16:07:00,
2013-01-01 11:12:00,57.6,48.2,30.28,WNW,292,3.8,3.8,71,0.00,OVC,,0.00,WeatherDisplay:10.37,2013-01-01 16:12:00,
2013-01-01 11:17:00,57.6,48.2,30.28,WSW,248,2.3,2.3,71,0.00,OVC,,0.00,WeatherDisplay:10.37,2013-01-01 16:17:00,
2013-01-01 11:22:00,57.6,48.2,30.28,NW,315,3.5,3.5,71,0.00,OVC,,0.00,WeatherDisplay:10.37,2013-01-01 16:22:00,
2013-01-01 11:27:00,57.7,48.4,30.28,SW,225,3.5,3.5,71,0.00,OVC,,0.00,WeatherDisplay:10.37,2013-01-01 16:27:00,
2013-01-01 11:32:00,57.7,48.4,30.27,WSW,248,2.3,2.3,71,0.00,OVC,,0.00,WeatherDisplay:10.37,2013-01-01 16:32:00,
2013-01-01 11:37:00,57.7,48.4,30.27,SSW,202,3.5,3.5,71,0.00,OVC,,0.00,WeatherDisplay:10.37,2013-01-01 16:37:00,
2013-01-01 11:42:00,57.7,48.4,30.27,SW,225,2.6,2.6,71,0.00,OVC,,0.00,WeatherDisplay:10.37,2013-01-01 16:42:00,
2013-01-01 11:47:00,57.7,48.4,30.26,WSW,248,2.3,2.3,71,0.00,OVC,,0.00,WeatherDisplay:10.37,2013-01-01 16:47:00,
2013-01-01 11:52:00,57.7,48.4,30.26,SW,225,3.5,3.5,71,0.00,OVC,,0.00,WeatherDisplay:10.37,2013-01-01 16:52:00,
2013-01-01 11:57:00,57.7,48.4,30.26,WSW,248,4.6,4.6,71,0.00,OVC,,0.00,WeatherDisplay:10.37,2013-01-01 16:57:00,
2013-01-01 12:02:00,57.7,48.4,30.26,South,180,3.6,3.6,71,0.00,OVC,,0.00,WeatherDisplay:10.37,2013-01-01 17:02:00,
2013-01-01 12:07:00,57.6,48.2,30.25,West,270,2.4,2.4,71,0.00,OVC,,0.00,WeatherDisplay:10.37,2013-01-01 17:07:00,
2013-01-01 12:12:00,57.6,48.2,30.24,SSW,202,3.5,3.5,71,0.00,OVC,,0.00,WeatherDisplay:10.37,2013-01-01 17:12:00,
2013-01-01 12:17:00,57.6,48.2,30.24,WSW,248,2.3,2.3,71,0.00,OVC,,0.00,WeatherDisplay:10.37,2013-01-01 17:17:00,
2013-01-01 12:22:00,57.6,48.2,30.24,SW,225,2.3,2.3,71,0.00,OVC,,0.00,WeatherDisplay:10.37,2013-01-01 17:22:00,
2013-01-01 12:27:00,57.4,48.1,30.24,SSW,202,2.3,2.3,71,0.00,OVC,,0.00,WeatherDisplay:10.37,2013-01-01 17:27:00,
2013-01-01 12:32:00,57.4,48.4,30.24,SSW,202,2.3,2.3,72,0.00,OVC,,0.00,WeatherDisplay:10.37,2013-01-01 17:32:00,
2013-01-01 12:37:00,57.6,48.6,30.23,SW,225,2.4,2.4,72,0.00,OVC,,0.00,WeatherDisplay:10.37,2013-01-01 17:37:00,
2013-01-01 12:42:00,57.4,48.8,30.23,WSW,248,3.6,3.6,73,0.00,OVC,,0.00,WeatherDisplay:10.37,2013-01-01 17:42:00,
2013-01-01 12:47:00,57.4,48.8,30.23,SW,225,2.3,2.3,73,0.00,OVC,,0.00,WeatherDisplay:10.37,2013-01-01 17:47:00,
2013-01-01 12:52:00,57.4,48.8,30.23,WNW,292,3.5,3.5,73,0.00,OVC,,0.00,WeatherDisplay:10.37,2013-01-01 17:52:00,
2013-01-01 12:57:00,57.2,48.6,30.23,WNW,292,1.1,1.1,73,0.00,OVC,,0.00,WeatherDisplay:10.37,2013-01-01 17:57:00,
2013-01-01 13:02:00,57.2,48.6,30.23,West,270,3.3,3.3,73,0.00,-RA,,0.00,WeatherDisplay:10.37,2013-01-01 18:02:00,
2013-01-01 13:07:00,57.2,49.0,30.23,WSW,248,1.4,1.4,74,0.00,-RA,,0.00,WeatherDisplay:10.37,2013-01-01 18:07:00,
2013-01-01 13:12:00,57.2,49.0,30.22,WSW,248,2.3,2.3,74,0.00,-RA,,0.00,WeatherDisplay:10.37,2013-01-01 18:12:00,
2013-01-01 13:17:00,57.2,49.0,30.21,WSW,248,2.3,2.3,74,0.00,-RA,,0.00,WeatherDisplay:10.37,2013-01-01 18:17:00,
2013-01-01 13:22:00,57.0,49.2,30.21,WSW,248,1.1,1.1,75,0.00,-RA,,0.00,WeatherDisplay:10.37,2013-01-01 18:22:00,
2013-01-01 13:27:00,57.2,49.3,30.21,West,270,4.6,4.6,75,0.00,-RA,,0.00,WeatherDisplay:10.37,2013-01-01 18:27:00,
2013-01-01 13:32:00,57.2,49.3,30.21,WSW,248,4.6,4.6,75,0.00,-RA,,0.00,WeatherDisplay:10.37,2013-01-01 18:32:00,
2013-01-01 13:37:00,57.0,49.2,30.21,SW,225,2.3,2.3,75,0.00,-RA,,0.00,WeatherDisplay:10.37,2013-01-01 18:37:00,
2013-01-01 13:42:00,57.2,49.3,30.21,WSW,248,3.5,3.5,75,0.00,-RA,,0.00,WeatherDisplay:10.37,2013-01-01 18:42:00,
2013-01-01 13:47:00,57.0,49.2,30.21,WSW,248,3.5,3.5,75,0.00,-RA,,0.00,WeatherDisplay:10.37,2013-01-01 18:47:00,
2013-01-01 13:52:00,57.0,49.5,30.21,WSW,248,6.0,6.0,76,0.00,-RA,,0.00,WeatherDisplay:10.37,2013-01-01 18:52:00,
2013-01-01 13:57:00,57.0,49.5,30.20,SSW,202,3.5,3.5,76,0.00,-RA,,0.00,WeatherDisplay:10.37,2013-01-01 18:57:00,
2013-01-01 14:02:00,57.0,49.5,30.20,SW,225,2.3,2.3,76,0.00,-RA,,0.00,WeatherDisplay:10.37,2013-01-01 19:02:00,
2013-01-01 14:07:00,57.0,49.5,30.20,SSW,202,2.3,4.0,76,0.01,-RA,,0.01,WeatherDisplay:10.37,2013-01-01 19:07:00,
2013-01-01 14:12:00,57.0,49.5,30.20,SSW,202,4.6,4.6,76,0.01,-RA,,0.01,WeatherDisplay:10.37,2013-01-01 19:12:00,
2013-01-01 14:17:00,56.8,49.7,30.19,South,180,2.3,2.3,77,0.01,-RA,,0.01,WeatherDisplay:10.37,2013-01-01 19:17:00,
2013-01-01 14:22:00,56.8,49.7,30.19,SSW,202,2.3,2.9,77,0.01,-RA,,0.01,WeatherDisplay:10.37,2013-01-01 19:22:00,
2013-01-01 14:27:00,57.0,50.2,30.19,SW,225,1.1,1.4,78,0.01,-RA,,0.01,WeatherDisplay:10.37,2013-01-01 19:27:00,
2013-01-01 14:32:00,57.0,50.2,30.19,SW,225,2.3,2.4,78,0.01,-RA,,0.01,WeatherDisplay:10.37,2013-01-01 19:32:00,
2013-01-01 14:37:00,57.0,50.2,30.19,SW,225,1.1,1.1,78,0.01,-RA,,0.01,WeatherDisplay:10.37,2013-01-01 19:37:00,
2013-01-01 14:42:00,57.0,50.2,30.19,WSW,248,3.5,3.6,78,0.01,-RA,,0.01,WeatherDisplay:10.37,2013-01-01 19:42:00,
2013-01-01 14:47:00,56.8,50.1,30.19,WSW,248,2.3,2.3,78,0.01,-RA,,0.01,WeatherDisplay:10.37,2013-01-01 19:47:00,
2013-01-01 14:52:00,56.8,50.1,30.19,West,270,2.3,2.3,78,0.01,-RA,,0.01,WeatherDisplay:10.37,2013-01-01 19:52:00,
2013-01-01 14:57:00,56.5,49.7,30.19,West,270,3.5,3.5,78,0.01,-RA,,0.01,WeatherDisplay:10.37,2013-01-01 19:57:00,
2013-01-01 15:02:00,56.7,49.9,30.19,WSW,248,3.5,3.5,78,0.01,-RA,,0.01,WeatherDisplay:10.37,2013-01-01 20:02:00,
2013-01-01 15:07:00,56.5,50.0,30.19,WSW,248,2.6,2.6,79,0.00,-RA,,0.01,WeatherDisplay:10.37,2013-01-01 20:07:00,
2013-01-01 15:12:00,56.7,50.2,30.19,West,270,3.1,3.1,79,0.00,OVC,,0.01,WeatherDisplay:10.37,2013-01-01 20:12:00,
2013-01-01 15:17:00,56.7,50.2,30.19,West,270,4.6,4.6,79,0.00,OVC,,0.01,WeatherDisplay:10.37,2013-01-01 20:17:00,
2013-01-01 15:22:00,56.7,50.2,30.19,NNW,338,1.8,1.8,79,0.00,OVC,,0.01,WeatherDisplay:10.37,2013-01-01 20:22:00,
2013-01-01 15:27:00,56.5,50.0,30.19,West,270,2.3,2.3,79,0.00,OVC,,0.01,WeatherDisplay:10.37,2013-01-01 20:27:00,
2013-01-01 15:32:00,56.5,50.0,30.19,WSW,248,1.1,1.1,79,0.00,OVC,,0.01,WeatherDisplay:10.37,2013-01-01 20:32:00,
2013-01-01 15:37:00,56.7,50.2,30.19,SW,225,2.6,2.6,79,0.00,OVC,,0.01,WeatherDisplay:10.37,2013-01-01 20:37:00,
2013-01-01 15:42:00,56.7,50.2,30.18,WNW,292,3.5,3.5,79,0.00,OVC,,0.01,WeatherDisplay:10.37,2013-01-01 20:42:00,
2013-01-01 15:47:00,56.7,50.2,30.18,SSW,202,3.6,3.6,79,0.00,OVC,,0.01,WeatherDisplay:10.37,2013-01-01 20:47:00,
2013-01-01 15:52:00,56.7,50.2,30.18,SSW,202,4.6,4.6,79,0.00,OVC,,0.01,WeatherDisplay:10.37,2013-01-01 20:52:00,
2013-01-01 15:57:00,56.7,50.2,30.18,WSW,248,3.5,3.5,79,0.00,OVC,,0.01,WeatherDisplay:10.37,2013-01-01 20:57:00,
2013-01-01 16:02:00,56.7,50.2,30.18,SW,225,3.5,3.5,79,0.00,OVC,,0.01,WeatherDisplay:10.37,2013-01-01 21:02:00,
2013-01-01 16:07:00,56.5,50.0,30.18,SSW,202,5.8,5.8,79,0.00,OVC,,0.01,WeatherDisplay:10.37,2013-01-01 21:07:00,
2013-01-01 16:12:00,56.5,50.0,30.18,SSE,158,6.2,6.2,79,0.00,OVC,,0.01,WeatherDisplay:10.37,2013-01-01 21:12:00,
2013-01-01 16:17:00,56.5,50.4,30.18,SSW,202,4.6,4.6,80,0.00,OVC,,0.01,WeatherDisplay:10.37,2013-01-01 21:17:00,
2013-01-01 16:22:00,56.5,50.4,30.18,WSW,248,3.5,3.5,80,0.00,OVC,,0.01,WeatherDisplay:10.37,2013-01-01 21:22:00,
2013-01-01 16:27:00,56.3,50.2,30.17,SW,225,4.6,4.6,80,0.00,OVC,,0.01,WeatherDisplay:10.37,2013-01-01 21:27:00,
2013-01-01 16:32:00,56.3,50.2,30.17,West,270,2.4,2.4,80,0.00,OVC,,0.01,WeatherDisplay:10.37,2013-01-01 21:32:00,
2013-01-01 16:37:00,56.3,50.2,30.17,WSW,248,3.5,3.5,80,0.00,OVC,,0.01,WeatherDisplay:10.37,2013-01-01 21:37:00,
2013-01-01 16:42:00,56.1,50.0,30.17,SE,135,4.6,4.6,80,0.00,OVC,,0.01,WeatherDisplay:10.37,2013-01-01 21:42:00,
2013-01-01 16:47:00,56.3,50.5,30.16,West,270,3.8,3.8,81,0.00,OVC,,0.01,WeatherDisplay:10.37,2013-01-01 21:47:00,
2013-01-01 16:52:00,56.1,50.4,30.16,SSE,158,3.5,3.5,81,0.00,OVC,,0.01,WeatherDisplay:10.37,2013-01-01 21:52:00,
2013-01-01 16:57:00,56.1,50.4,30.16,West,270,3.5,3.5,81,0.00,OVC,,0.01,WeatherDisplay:10.37,2013-01-01 21:57:00,
2013-01-01 17:02:00,56.1,50.4,30.16,SE,135,3.1,3.1,81,0.00,OVC,,0.01,WeatherDisplay:10.37,2013-01-01 22:02:00,
2013-01-01 17:07:00,56.1,50.4,30.16,SSW,202,2.3,2.3,81,0.00,OVC,,0.01,WeatherDisplay:10.37,2013-01-01 22:07:00,
2013-01-01 17:12:00,56.1,50.4,30.16,SSW,202,2.3,2.9,81,0.00,OVC,,0.01,WeatherDisplay:10.37,2013-01-01 22:12:00,
2013-01-01 17:17:00,56.1,50.4,30.16,SW,225,3.1,3.1,81,0.00,OVC,,0.01,WeatherDisplay:10.37,2013-01-01 22:17:00,
2013-01-01 17:22:00,56.1,50.4,30.16,SSW,202,4.6,4.6,81,0.00,OVC,,0.01,WeatherDisplay:10.37,2013-01-01 22:22:00,
2013-01-01 17:27:00,55.9,50.2,30.16,WSW,248,3.5,3.8,81,0.00,OVC,,0.01,WeatherDisplay:10.37,2013-01-01 22:27:00,
2013-01-01 17:32:00,55.9,50.2,30.16,WSW,248,2.4,2.4,81,0.00,OVC,,0.01,WeatherDisplay:10.37,2013-01-01 22:32:00,
2013-01-01 17:37:00,55.9,50.2,30.16,WSW,248,4.6,4.6,81,0.00,OVC,,0.01,WeatherDisplay:10.37,2013-01-01 22:37:00,
2013-01-01 17:42:00,55.9,50.2,30.16,SSE,158,3.5,3.5,81,0.00,OVC,,0.01,WeatherDisplay:10.37,2013-01-01 22:42:00,
2013-01-01 17:47:00,56.1,50.4,30.17,West,270,2.3,2.3,81,0.00,OVC,,0.01,WeatherDisplay:10.37,2013-01-01 22:47:00,
2013-01-01 17:52:00,56.1,50.4,30.16,SW,225,2.4,2.4,81,0.00,OVC,,0.01,WeatherDisplay:10.37,2013-01-01 22:52:00,
2013-01-01 17:57:00,56.1,50.4,30.16,WSW,248,2.3,2.3,81,0.00,OVC,,0.01,WeatherDisplay:10.37,2013-01-01 22:57:00,
2013-01-01 18:02:00,56.1,50.4,30.16,SW,225,2.3,2.3,81,0.00,OVC,,0.01,WeatherDisplay:10.37,2013-01-01 23:02:00,
2013-01-01 18:07:00,56.1,50.4,30.16,SSW,202,1.1,1.1,81,0.00,OVC,,0.01,WeatherDisplay:10.37,2013-01-01 23:07:00,
2013-01-01 18:12:00,56.1,50.4,30.16,SW,225,1.6,1.6,81,0.00,OVC,,0.01,WeatherDisplay:10.37,2013-01-01 23:12:00,
2013-01-01 18:17:00,56.3,50.5,30.16,South,180,1.1,1.1,81,0.00,OVC,,0.01,WeatherDisplay:10.37,2013-01-01 23:17:00,
2013-01-01 18:22:00,56.3,50.5,30.17,WSW,248,2.3,2.3,81,0.00,OVC,,0.01,WeatherDisplay:10.37,2013-01-01 23:22:00,
2013-01-01 18:27:00,56.3,50.5,30.17,SW,225,2.3,2.3,81,0.00,OVC,,0.01,WeatherDisplay:10.37,2013-01-01 23:27:00,
2013-01-01 18:32:00,56.3,50.5,30.17,SSW,202,1.6,1.6,81,0.00,OVC,,0.01,WeatherDisplay:10.37,2013-01-01 23:32:00,
2013-01-01 18:37:00,56.3,50.5,30.17,SW,225,0.9,0.9,81,0.00,OVC,,0.01,WeatherDisplay:10.37,2013-01-01 23:37:00,
2013-01-01 18:42:00,56.3,50.5,30.17,SW,225,1.1,0.0,81,0.00,OVC,,0.01,WeatherDisplay:10.37,2013-01-01 23:42:00,
2013-01-01 18:47:00,56.3,50.5,30.17,WSW,248,1.1,1.1,81,0.00,OVC,,0.01,WeatherDisplay:10.37,2013-01-01 23:47:00,
2013-01-01 18:52:00,56.3,50.5,30.17,WSW,248,1.1,1.1,81,0.00,OVC,,0.01,WeatherDisplay:10.37,2013-01-01 23:52:00,
2013-01-01 18:57:00,56.3,50.5,30.18,WSW,248,1.1,1.1,81,0.00,OVC,,0.01,WeatherDisplay:10.37,2013-01-01 23:57:00,
2013-01-01 19:02:00,56.3,50.5,30.18,SW,225,2.3,2.3,81,0.00,OVC,,0.01,WeatherDisplay:10.37,2013-01-02 00:02:00,
2013-01-01 19:07:00,56.5,50.7,30.17,SSW,202,1.1,1.1,81,0.00,OVC,,0.01,WeatherDisplay:10.37,2013-01-02 00:07:00,
2013-01-01 19:12:00,56.5,50.7,30.17,SW,225,1.1,1.1,81,0.00,OVC,,0.01,WeatherDisplay:10.37,2013-01-02 00:12:00,
2013-01-01 19:17:00,56.5,50.7,30.17,WSW,248,1.1,0.0,81,0.00,OVC,,0.01,WeatherDisplay:10.37,2013-01-02 00:17:00,
2013-01-01 19:22:00,56.5,50.7,30.17,SW,225,0.0,0.9,81,0.00,OVC,,0.01,WeatherDisplay:10.37,2013-01-02 00:22:00,
2013-01-01 19:27:00,56.5,51.1,30.17,WSW,248,0.0,0.0,82,0.00,OVC,,0.01,WeatherDisplay:10.37,2013-01-02 00:27:00,
2013-01-01 19:32:00,56.7,51.2,30.17,WSW,248,0.0,0.0,82,0.00,OVC,,0.01,WeatherDisplay:10.37,2013-01-02 00:32:00,
2013-01-01 19:37:00,56.7,51.2,30.17,West,270,0.0,0.0,82,0.00,OVC,,0.01,WeatherDisplay:10.37,2013-01-02 00:37:00,
2013-01-01 19:42:00,56.7,51.2,30.17,NW,315,1.1,1.1,82,0.00,OVC,,0.01,WeatherDisplay:10.37,2013-01-02 00:42:00,
2013-01-01 19:48:00,56.7,51.2,30.17,NNW,338,1.1,1.1,82,0.00,OVC,,0.01,WeatherDisplay:10.37,2013-01-02 00:48:00,
2013-01-01 19:53:00,56.7,51.2,30.17,NNW,338,0.2,0.2,82,0.00,OVC,,0.01,WeatherDisplay:10.37,2013-01-02 00:53:00,
2013-01-01 19:58:00,56.5,51.1,30.17,WNW,292,1.1,1.1,82,0.00,OVC,,0.01,WeatherDisplay:10.37,2013-01-02 00:58:00,
2013-01-01 20:03:00,56.5,51.1,30.16,North,0,0.0,0.5,82,0.00,OVC,,0.01,WeatherDisplay:10.37,2013-01-02 01:03:00,
2013-01-01 20:08:00,56.5,51.1,30.17,NW,315,1.1,1.1,82,0.00,OVC,,0.01,WeatherDisplay:10.37,2013-01-02 01:08:00,
2013-01-01 20:13:00,56.5,51.1,30.18,NNW,338,1.4,1.4,82,0.00,OVC,,0.01,WeatherDisplay:10.37,2013-01-02 01:13:00,
2013-01-01 20:18:00,56.5,50.7,30.17,NNE,22,1.1,1.1,81,0.00,OVC,,0.01,WeatherDisplay:10.37,2013-01-02 01:18:00,
2013-01-01 20:24:00,56.3,50.5,30.17,NNW,338,1.4,1.4,81,0.00,OVC,,0.01,WeatherDisplay:10.37,2013-01-02 01:24:00,
2013-01-01 20:29:00,56.3,50.5,30.17,NNW,338,1.1,1.1,81,0.00,OVC,,0.01,WeatherDisplay:10.37,2013-01-02 01:29:00,
2013-01-01 20:34:00,56.1,50.4,30.17,NNW,338,1.1,1.1,81,0.00,OVC,,0.01,WeatherDisplay:10.37,2013-01-02 01:34:00,
2013-01-01 20:39:00,56.1,50.7,30.16,NNW,338,2.3,2.3,82,0.00,OVC,,0.01,WeatherDisplay:10.37,2013-01-02 01:39:00,
2013-01-01 20:44:00,56.1,50.7,30.16,North,0,1.1,1.1,82,0.00,OVC,,0.01,WeatherDisplay:10.37,2013-01-02 01:44:00,
2013-01-01 20:49:00,55.8,50.3,30.17,North,0,2.3,2.3,82,0.00,OVC,,0.01,WeatherDisplay:10.37,2013-01-02 01:49:00,
2013-01-01 20:54:00,55.8,50.3,30.16,NNE,22,2.3,2.3,82,0.00,OVC,,0.01,WeatherDisplay:10.37,2013-01-02 01:54:00,
2013-01-01 20:59:00,55.8,50.3,30.16,SE,135,1.1,1.1,82,0.00,OVC,,0.01,WeatherDisplay:10.37,2013-01-02 01:59:00,
2013-01-01 21:04:00,55.8,50.3,30.16,NW,315,0.5,0.5,82,0.00,OVC,,0.01,WeatherDisplay:10.37,2013-01-02 02:04:00,
2013-01-01 21:09:00,55.8,50.3,30.16,North,0,0.5,0.5,82,0.00,OVC,,0.01,WeatherDisplay:10.37,2013-01-02 02:09:00,
2013-01-01 21:14:00,55.8,50.3,30.16,NNW,338,1.1,1.1,82,0.00,OVC,,0.01,WeatherDisplay:10.37,2013-01-02 02:14:00,
2013-01-01 21:19:00,55.8,50.3,30.16,NNW,338,1.1,1.1,82,0.00,OVC,,0.01,WeatherDisplay:10.37,2013-01-02 02:19:00,
2013-01-01 21:24:00,55.8,50.3,30.16,WSW,248,0.0,0.0,82,0.00,OVC,,0.01,WeatherDisplay:10.37,2013-01-02 02:24:00,
2013-01-01 21:29:00,55.8,50.3,30.16,SE,135,0.2,0.2,82,0.00,OVC,,0.01,WeatherDisplay:10.37,2013-01-02 02:29:00,
2013-01-01 21:34:00,55.9,50.5,30.15,South,180,0.2,0.2,82,0.00,OVC,,0.01,WeatherDisplay:10.37,2013-01-02 02:34:00,
2013-01-01 21:39:00,55.9,50.5,30.15,ESE,112,0.0,0.0,82,0.00,OVC,,0.01,WeatherDisplay:10.37,2013-01-02 02:39:00,
2013-01-01 21:44:00,55.9,50.5,30.16,ESE,112,0.0,0.0,82,0.00,OVC,,0.01,WeatherDisplay:10.37,2013-01-02 02:44:00,
2013-01-01 21:49:00,55.9,50.5,30.15,SE,135,0.0,0.5,82,0.00,OVC,,0.01,WeatherDisplay:10.37,2013-01-02 02:49:00,
2013-01-01 21:54:00,55.9,50.5,30.14,SSE,158,0.0,0.0,82,0.00,OVC,,0.01,WeatherDisplay:10.37,2013-01-02 02:54:00,
2013-01-01 21:59:00,55.9,50.5,30.14,NNE,22,0.0,0.0,82,0.00,OVC,,0.01,WeatherDisplay:10.37,2013-01-02 02:59:00,
2013-01-01 22:04:00,55.9,50.5,30.14,NNE,22,0.0,0.0,82,0.00,OVC,,0.01,WeatherDisplay:10.37,2013-01-02 03:04:00,
2013-01-01 22:09:00,55.8,50.3,30.14,NNE,22,0.0,0.0,82,0.00,OVC,,0.01,WeatherDisplay:10.37,2013-01-02 03:09:00,
2013-01-01 22:14:00,55.8,50.3,30.14,NW,315,0.0,0.0,82,0.00,OVC,,0.01,WeatherDisplay:10.37,2013-01-02 03:14:00,
2013-01-01 22:19:00,55.8,50.3,30.14,West,270,0.0,0.0,82,0.00,OVC,,0.01,WeatherDisplay:10.37,2013-01-02 03:19:00,
2013-01-01 22:24:00,55.8,50.3,30.14,SSW,202,0.0,0.0,82,0.00,OVC,,0.01,WeatherDisplay:10.37,2013-01-02 03:24:00,
2013-01-01 22:29:00,55.8,50.3,30.14,SW,225,0.0,0.0,82,0.00,OVC,,0.01,WeatherDisplay:10.37,2013-01-02 03:29:00,
2013-01-01 22:34:00,55.6,50.2,30.14,NW,315,1.1,1.1,82,0.00,OVC,,0.01,WeatherDisplay:10.37,2013-01-02 03:34:00,
2013-01-01 22:39:00,55.6,50.2,30.13,NW,315,0.0,0.0,82,0.00,OVC,,0.01,WeatherDisplay:10.37,2013-01-02 03:39:00,
2013-01-01 22:44:00,55.4,50.0,30.14,NW,315,0.0,0.0,82,0.00,OVC,,0.01,WeatherDisplay:10.37,2013-01-02 03:44:00,
2013-01-01 22:49:00,55.4,50.0,30.14,NW,315,0.0,0.0,82,0.00,OVC,,0.01,WeatherDisplay:10.37,2013-01-02 03:49:00,
2013-01-01 22:54:00,55.2,49.8,30.14,SW,225,0.0,0.0,82,0.00,OVC,,0.01,WeatherDisplay:10.37,2013-01-02 03:54:00,
2013-01-01 22:59:00,55.0,49.6,30.13,South,180,0.0,0.0,82,0.00,OVC,,0.01,WeatherDisplay:10.37,2013-01-02 03:59:00,
2013-01-01 23:04:00,55.0,49.6,30.12,SE,135,0.0,0.0,82,0.00,BKN,,0.01,WeatherDisplay:10.37,2013-01-02 04:04:00,
2013-01-01 23:09:00,55.0,49.6,30.12,SE,135,0.0,0.0,82,0.00,BKN,,0.01,WeatherDisplay:10.37,2013-01-02 04:09:00,
2013-01-01 23:14:00,55.0,49.6,30.12,SSE,158,0.0,0.0,82,0.00,BKN,,0.01,WeatherDisplay:10.37,2013-01-02 04:14:00,
2013-01-01 23:19:00,55.0,49.6,30.12,SE,135,0.2,0.2,82,0.00,BKN,,0.01,WeatherDisplay:10.37,2013-01-02 04:19:00,
2013-01-01 23:24:00,55.0,49.6,30.11,SSE,158,0.0,0.0,82,0.00,BKN,,0.01,WeatherDisplay:10.37,2013-01-02 04:24:00,
2013-01-01 23:29:00,55.0,49.6,30.11,WSW,248,0.0,0.0,82,0.00,BKN,,0.01,WeatherDisplay:10.37,2013-01-02 04:29:00,
2013-01-01 23:34:00,54.9,49.8,30.12,WSW,248,0.0,0.0,83,0.00,BKN,,0.01,WeatherDisplay:10.37,2013-01-02 04:34:00,
2013-01-01 23:39:00,54.9,49.8,30.12,NE,45,0.0,0.0,83,0.00,BKN,,0.01,WeatherDisplay:10.37,2013-01-02 04:39:00,
2013-01-01 23:44:00,54.9,49.8,30.12,NNW,338,0.5,0.5,83,0.00,BKN,,0.01,WeatherDisplay:10.37,2013-01-02 04:44:00,
2013-01-01 23:49:00,54.9,49.8,30.11,NNW,338,0.0,0.0,83,0.00,BKN,,0.01,WeatherDisplay:10.37,2013-01-02 04:49:00,
2013-01-01 23:54:00,54.9,49.8,30.11,NNE,22,0.0,0.0,83,0.00,BKN,,0.01,WeatherDisplay:10.37,2013-01-02 04:54:00,
2013-01-01 23:59:00,55.0,50.0,30.12,NNW,338,1.1,1.1,83,0.00,BKN,,0.01,WeatherDisplay:10.37,2013-01-02 04:59:00,